Scroll down
FLIGHT INFORMATION
British Airways

BAW623

At Arrival Gate

RKSI
 RJTT
DATE: 2022-07-13
GATE: 31
GATE DEPARTURE: 07:50
TAKEOFF: 08:06
DATE: 2022-07-13
GATE:  -
LANDING: 10:04
GATE ARRIVAL: 10:14
FLIGHT DATA
Crew: 
Speed: 
957 kph
Altitude: 
37,015 ft
Stage Length: 
1,210.1 km
Block Time: 
2.3 hrs
Flight Time: 
2 hrs
Fuel Used: 
22,050 kg
Cleared Route: RKSI SEL EGOBA KARBU TORUS BIKSI KAE PILIT NIMUS AGSUS LANAT MIDER SHTLE GAKKI SHOOT ARTIC SPENS XAC RJTT
TRACK DATA
50,000 ft 1,000 kts
AIRCRAFT INFO AND CUMULATIVE STATS
Aircraft Type: 
B744
Registration: 
SELCAL: 
BHMP
MSN/LN: 
27478 / 1108
Operator: 
Total Flights: 
1
Total Block Time: 
2.3 hrs
Total Flight Time: 
2 hrs
Total Fuel Used: 
22,050 kg
DATALINK LOG | Newest first | Current as of: 2022-08-16 06:55:06
LABEL SEQUENCE CONTENT Dn/Up
QD143410:14 57.5▼ Dn
QC042810:04▼ Dn
2U5712RJTT 120830Z 16010KT 9999 FEW015 BKN020 BKN040 27/23 Q1006 NOSIG▲ Up
2S5635RJTT▼ Dn
QB304008:06▼ Dn
QA152107:50 106.3▼ Dn
A30513NO MATCHING FLIGHT DATA AVAILABLE FROM ANSP▲ Up
B30513RKSI RJTT I ▼ Dn
Q00310[LINK ACK]▲ Up
Q00310[LINK TEST]▼ Dn


AIRCRAFT HISTORY
FLIGHT DATE FLIGHT NO. ORIGIN DESTINATION CLEARED ROUTE BLOCK TIME FLIGHT TIME FUEL USED PILOT
2022-07-13BAW623RKSI RJTT RKSI SEL EGOBA KARBU TORUS BIKSI KAE PILIT NIMUS AGSUS LANAT MIDER SHTLE GAKKI SHOOT ARTIC SPENS XAC RJTT2.3 hrs2 hrs48,612 lbMike Dryden